sensor_id;sensor_type;location;lat;lon;timestamp;temperature;humidity
51567;DHT22;37657;53.182;5.638;2022-12-29T00:02:11;10.30;99.90
51567;DHT22;37657;53.182;5.638;2022-12-29T00:04:37;10.40;99.90
51567;DHT22;37657;53.182;5.638;2022-12-29T00:07:03;10.30;99.90
51567;DHT22;37657;53.182;5.638;2022-12-29T00:09:30;10.30;99.90
51567;DHT22;37657;53.182;5.638;2022-12-29T00:11:56;10.40;99.90
51567;DHT22;37657;53.182;5.638;2022-12-29T00:14:22;10.30;99.90
51567;DHT22;37657;53.182;5.638;2022-12-29T00:17:06;10.30;99.90
51567;DHT22;37657;53.182;5.638;2022-12-29T00:19:31;10.30;99.90
51567;DHT22;37657;53.182;5.638;2022-12-29T00:22:16;10.20;99.90
51567;DHT22;37657;53.182;5.638;2022-12-29T00:25:00;10.30;99.90
51567;DHT22;37657;53.182;5.638;2022-12-29T00:27:44;10.30;99.90
51567;DHT22;37657;53.182;5.638;2022-12-29T00:30:28;10.30;99.90
51567;DHT22;37657;53.182;5.638;2022-12-29T00:33:15;10.20;99.90
51567;DHT22;37657;53.182;5.638;2022-12-29T00:36:11;10.20;99.90
51567;DHT22;37657;53.182;5.638;2022-12-29T00:38:41;10.30;99.90
51567;DHT22;37657;53.182;5.638;2022-12-29T00:41:26;10.50;99.90
51567;DHT22;37657;53.182;5.638;2022-12-29T00:44:12;10.40;99.90
51567;DHT22;37657;53.182;5.638;2022-12-29T00:46:40;10.30;99.90
51567;DHT22;37657;53.182;5.638;2022-12-29T00:49:07;10.40;99.90
51567;DHT22;37657;53.182;5.638;2022-12-29T00:51:51;10.50;99.90
51567;DHT22;37657;53.182;5.638;2022-12-29T00:54:18;10.40;99.90
51567;DHT22;37657;53.182;5.638;2022-12-29T00:56:49;10.50;99.90
51567;DHT22;37657;53.182;5.638;2022-12-29T00:59:15;10.40;99.90
51567;DHT22;37657;53.182;5.638;2022-12-29T01:01:41;10.40;99.90
51567;DHT22;37657;53.182;5.638;2022-12-29T01:04:07;10.40;99.90
51567;DHT22;37657;53.182;5.638;2022-12-29T01:06:34;10.50;99.90
51567;DHT22;37657;53.182;5.638;2022-12-29T01:09:00;10.40;99.90
51567;DHT22;37657;53.182;5.638;2022-12-29T01:11:45;10.50;99.90
51567;DHT22;37657;53.182;5.638;2022-12-29T01:14:10;10.40;99.90
51567;DHT22;37657;53.182;5.638;2022-12-29T01:16:36;10.40;99.90
51567;DHT22;37657;53.182;5.638;2022-12-29T01:19:02;10.40;99.90
51567;DHT22;37657;53.182;5.638;2022-12-29T01:21:28;10.50;99.90
51567;DHT22;37657;53.182;5.638;2022-12-29T01:23:53;10.40;99.90
51567;DHT22;37657;53.182;5.638;2022-12-29T01:26:19;10.30;99.90
51567;DHT22;37657;53.182;5.638;2022-12-29T01:28:45;10.30;99.90
51567;DHT22;37657;53.182;5.638;2022-12-29T01:31:12;10.40;99.90
51567;DHT22;37657;53.182;5.638;2022-12-29T01:33:38;10.30;99.90
51567;DHT22;37657;53.182;5.638;2022-12-29T01:36:09;10.30;99.90
51567;DHT22;37657;53.182;5.638;2022-12-29T01:38:36;10.30;99.90
51567;DHT22;37657;53.182;5.638;2022-12-29T01:41:03;10.40;99.90
51567;DHT22;37657;53.182;5.638;2022-12-29T01:43:39;10.40;99.90
51567;DHT22;37657;53.182;5.638;2022-12-29T01:46:15;10.40;99.90
51567;DHT22;37657;53.182;5.638;2022-12-29T01:48:43;10.60;99.90
51567;DHT22;37657;53.182;5.638;2022-12-29T01:51:08;10.30;99.90
51567;DHT22;37657;53.182;5.638;2022-12-29T01:53:35;10.40;99.90
51567;DHT22;37657;53.182;5.638;2022-12-29T01:56:05;10.30;99.90
51567;DHT22;37657;53.182;5.638;2022-12-29T01:58:38;10.50;99.90
51567;DHT22;37657;53.182;5.638;2022-12-29T02:01:05;10.40;99.90
51567;DHT22;37657;53.182;5.638;2022-12-29T02:03:31;10.30;99.90
51567;DHT22;37657;53.182;5.638;2022-12-29T02:08:28;10.50;99.90
51567;DHT22;37657;53.182;5.638;2022-12-29T02:10:55;10.50;99.90
51567;DHT22;37657;53.182;5.638;2022-12-29T02:13:24;10.30;99.90
51567;DHT22;37657;53.182;5.638;2022-12-29T02:16:25;10.40;99.90
51567;DHT22;37657;53.182;5.638;2022-12-29T02:19:30;10.30;99.90
51567;DHT22;37657;53.182;5.638;2022-12-29T02:27:53;10.40;99.90
51567;DHT22;37657;53.182;5.638;2022-12-29T02:30:31;10.40;99.90
51567;DHT22;37657;53.182;5.638;2022-12-29T02:36:06;10.40;99.90
51567;DHT22;37657;53.182;5.638;2022-12-29T02:38:46;10.40;99.90
51567;DHT22;37657;53.182;5.638;2022-12-29T02:41:25;10.30;99.90
51567;DHT22;37657;53.182;5.638;2022-12-29T02:47:21;10.40;99.90
51567;DHT22;37657;53.182;5.638;2022-12-29T02:52:48;10.40;99.90
51567;DHT22;37657;53.182;5.638;2022-12-29T02:55:15;10.30;99.90
51567;DHT22;37657;53.182;5.638;2022-12-29T02:57:40;10.30;99.90
51567;DHT22;37657;53.182;5.638;2022-12-29T03:00:14;10.40;99.90
51567;DHT22;37657;53.182;5.638;2022-12-29T03:03:05;10.40;99.90
51567;DHT22;37657;53.182;5.638;2022-12-29T03:05:41;10.40;99.90
51567;DHT22;37657;53.182;5.638;2022-12-29T03:08:27;10.50;99.90
51567;DHT22;37657;53.182;5.638;2022-12-29T03:10:59;10.40;99.90
51567;DHT22;37657;53.182;5.638;2022-12-29T03:16:35;10.50;99.90
51567;DHT22;37657;53.182;5.638;2022-12-29T03:19:21;10.40;99.90
51567;DHT22;37657;53.182;5.638;2022-12-29T03:21:55;10.40;99.90
51567;DHT22;37657;53.182;5.638;2022-12-29T03:24:43;10.40;99.90
51567;DHT22;37657;53.182;5.638;2022-12-29T03:27:13;10.40;99.90
51567;DHT22;37657;53.182;5.638;2022-12-29T03:29:45;10.20;99.90
51567;DHT22;37657;53.182;5.638;2022-12-29T03:32:13;10.30;99.90
51567;DHT22;37657;53.182;5.638;2022-12-29T03:34:40;10.20;99.90
51567;DHT22;37657;53.182;5.638;2022-12-29T03:37:32;10.30;99.90
51567;DHT22;37657;53.182;5.638;2022-12-29T03:40:01;10.20;99.90
51567;DHT22;37657;53.182;5.638;2022-12-29T03:42:28;10.20;99.90
51567;DHT22;37657;53.182;5.638;2022-12-29T03:44:56;10.20;99.90
51567;DHT22;37657;53.182;5.638;2022-12-29T03:47:23;10.10;99.90
51567;DHT22;37657;53.182;5.638;2022-12-29T03:49:48;10.10;99.90
51567;DHT22;37657;53.182;5.638;2022-12-29T03:52:14;10.10;99.90
51567;DHT22;37657;53.182;5.638;2022-12-29T03:54:40;10.00;99.90
51567;DHT22;37657;53.182;5.638;2022-12-29T03:57:05;10.00;99.90
51567;DHT22;37657;53.182;5.638;2022-12-29T03:59:31;10.00;99.90
51567;DHT22;37657;53.182;5.638;2022-12-29T04:01:56;10.10;99.90
51567;DHT22;37657;53.182;5.638;2022-12-29T04:04:22;10.10;99.90
51567;DHT22;37657;53.182;5.638;2022-12-29T04:06:47;10.10;99.90
51567;DHT22;37657;53.182;5.638;2022-12-29T04:09:13;10.10;99.90
51567;DHT22;37657;53.182;5.638;2022-12-29T04:11:39;10.10;99.90
51567;DHT22;37657;53.182;5.638;2022-12-29T04:14:04;10.10;99.90
51567;DHT22;37657;53.182;5.638;2022-12-29T04:16:30;10.10;99.90
51567;DHT22;37657;53.182;5.638;2022-12-29T04:18:55;10.00;99.90
51567;DHT22;37657;53.182;5.638;2022-12-29T04:21:21;9.90;99.90
51567;DHT22;37657;53.182;5.638;2022-12-29T04:23:46;9.90;99.90
51567;DHT22;37657;53.182;5.638;2022-12-29T04:26:12;9.90;99.90
51567;DHT22;37657;53.182;5.638;2022-12-29T04:28:37;9.90;99.90
51567;DHT22;37657;53.182;5.638;2022-12-29T04:31:04;9.90;99.90
51567;DHT22;37657;53.182;5.638;2022-12-29T04:33:30;9.80;99.90
51567;DHT22;37657;53.182;5.638;2022-12-29T04:35:55;9.80;99.90
51567;DHT22;37657;53.182;5.638;2022-12-29T04:38:22;9.80;99.90
51567;DHT22;37657;53.182;5.638;2022-12-29T04:40:48;9.80;99.90
51567;DHT22;37657;53.182;5.638;2022-12-29T04:43:15;9.80;99.90
51567;DHT22;37657;53.182;5.638;2022-12-29T04:45:47;9.80;99.90
51567;DHT22;37657;53.182;5.638;2022-12-29T04:48:13;9.80;99.90
51567;DHT22;37657;53.182;5.638;2022-12-29T04:50:40;9.80;99.90
51567;DHT22;37657;53.182;5.638;2022-12-29T04:53:06;9.90;99.90
51567;DHT22;37657;53.182;5.638;2022-12-29T04:55:32;10.00;99.90
51567;DHT22;37657;53.182;5.638;2022-12-29T04:57:57;9.90;99.90
51567;DHT22;37657;53.182;5.638;2022-12-29T05:00:23;9.90;99.90
51567;DHT22;37657;53.182;5.638;2022-12-29T05:02:49;10.00;99.90
51567;DHT22;37657;53.182;5.638;2022-12-29T05:05:14;10.00;99.90
51567;DHT22;37657;53.182;5.638;2022-12-29T05:07:40;9.90;99.90
51567;DHT22;37657;53.182;5.638;2022-12-29T05:10:07;10.00;99.90
51567;DHT22;37657;53.182;5.638;2022-12-29T05:12:33;10.00;99.90
51567;DHT22;37657;53.182;5.638;2022-12-29T05:14:59;10.00;99.90
51567;DHT22;37657;53.182;5.638;2022-12-29T05:17:25;10.00;99.90
51567;DHT22;37657;53.182;5.638;2022-12-29T05:19:51;10.00;99.90
51567;DHT22;37657;53.182;5.638;2022-12-29T05:22:17;9.90;99.90
51567;DHT22;37657;53.182;5.638;2022-12-29T05:24:43;10.00;99.90
51567;DHT22;37657;53.182;5.638;2022-12-29T05:27:08;10.00;99.90
51567;DHT22;37657;53.182;5.638;2022-12-29T05:29:34;10.00;99.90
51567;DHT22;37657;53.182;5.638;2022-12-29T05:31:59;10.00;99.90
51567;DHT22;37657;53.182;5.638;2022-12-29T05:34:25;10.00;99.90
51567;DHT22;37657;53.182;5.638;2022-12-29T05:36:51;10.00;99.90
51567;DHT22;37657;53.182;5.638;2022-12-29T05:39:16;10.00;99.90
51567;DHT22;37657;53.182;5.638;2022-12-29T05:41:42;10.10;99.90
51567;DHT22;37657;53.182;5.638;2022-12-29T05:44:09;10.00;99.90
51567;DHT22;37657;53.182;5.638;2022-12-29T05:46:34;10.10;99.90
51567;DHT22;37657;53.182;5.638;2022-12-29T05:49:00;10.20;99.90
51567;DHT22;37657;53.182;5.638;2022-12-29T05:51:25;10.20;99.90
51567;DHT22;37657;53.182;5.638;2022-12-29T05:53:51;10.20;99.90
51567;DHT22;37657;53.182;5.638;2022-12-29T05:56:17;10.10;99.90
51567;DHT22;37657;53.182;5.638;2022-12-29T05:58:42;10.20;99.90
51567;DHT22;37657;53.182;5.638;2022-12-29T06:01:08;10.20;99.90
51567;DHT22;37657;53.182;5.638;2022-12-29T06:03:33;10.10;99.90
51567;DHT22;37657;53.182;5.638;2022-12-29T06:05:59;10.10;99.90
51567;DHT22;37657;53.182;5.638;2022-12-29T06:08:24;10.00;99.90
51567;DHT22;37657;53.182;5.638;2022-12-29T06:10:50;10.00;99.90
51567;DHT22;37657;53.182;5.638;2022-12-29T06:13:16;10.00;99.90
51567;DHT22;37657;53.182;5.638;2022-12-29T06:15:41;10.00;99.90
51567;DHT22;37657;53.182;5.638;2022-12-29T06:18:07;9.90;99.90
51567;DHT22;37657;53.182;5.638;2022-12-29T06:20:33;9.90;99.90
51567;DHT22;37657;53.182;5.638;2022-12-29T06:22:58;9.80;99.90
51567;DHT22;37657;53.182;5.638;2022-12-29T06:25:24;9.90;99.90
51567;DHT22;37657;53.182;5.638;2022-12-29T06:27:50;9.80;99.90
51567;DHT22;37657;53.182;5.638;2022-12-29T06:30:15;9.80;99.90
51567;DHT22;37657;53.182;5.638;2022-12-29T06:32:42;9.80;99.90
51567;DHT22;37657;53.182;5.638;2022-12-29T06:35:08;9.80;99.90
51567;DHT22;37657;53.182;5.638;2022-12-29T06:37:34;9.80;99.90
51567;DHT22;37657;53.182;5.638;2022-12-29T06:39:59;9.70;99.90
51567;DHT22;37657;53.182;5.638;2022-12-29T06:42:25;9.80;99.90
51567;DHT22;37657;53.182;5.638;2022-12-29T06:44:50;9.80;99.90
51567;DHT22;37657;53.182;5.638;2022-12-29T06:47:16;9.80;99.90
51567;DHT22;37657;53.182;5.638;2022-12-29T06:49:41;9.90;99.90
51567;DHT22;37657;53.182;5.638;2022-12-29T06:52:07;9.80;99.90
51567;DHT22;37657;53.182;5.638;2022-12-29T06:54:32;9.80;99.90
51567;DHT22;37657;53.182;5.638;2022-12-29T06:56:59;9.90;99.90
51567;DHT22;37657;53.182;5.638;2022-12-29T06:59:25;9.90;99.90
51567;DHT22;37657;53.182;5.638;2022-12-29T07:01:51;9.80;99.90
51567;DHT22;37657;53.182;5.638;2022-12-29T07:04:17;9.80;99.90
51567;DHT22;37657;53.182;5.638;2022-12-29T07:06:42;9.90;99.90
51567;DHT22;37657;53.182;5.638;2022-12-29T07:09:08;9.90;99.90
51567;DHT22;37657;53.182;5.638;2022-12-29T07:11:34;9.90;99.90
51567;DHT22;37657;53.182;5.638;2022-12-29T07:14:00;10.00;99.90
51567;DHT22;37657;53.182;5.638;2022-12-29T07:16:26;10.00;99.90
51567;DHT22;37657;53.182;5.638;2022-12-29T07:18:51;9.90;99.90
51567;DHT22;37657;53.182;5.638;2022-12-29T07:21:18;10.00;99.90
51567;DHT22;37657;53.182;5.638;2022-12-29T07:23:43;10.10;99.90
51567;DHT22;37657;53.182;5.638;2022-12-29T07:26:12;10.00;99.90
51567;DHT22;37657;53.182;5.638;2022-12-29T07:28:38;10.00;99.90
51567;DHT22;37657;53.182;5.638;2022-12-29T07:31:04;10.00;99.90
51567;DHT22;37657;53.182;5.638;2022-12-29T07:33:30;10.00;99.90
51567;DHT22;37657;53.182;5.638;2022-12-29T07:35:56;10.00;99.90
51567;DHT22;37657;53.182;5.638;2022-12-29T07:38:22;10.10;99.90
51567;DHT22;37657;53.182;5.638;2022-12-29T07:40:48;10.00;99.90
51567;DHT22;37657;53.182;5.638;2022-12-29T07:43:13;10.00;99.90
51567;DHT22;37657;53.182;5.638;2022-12-29T07:45:39;10.00;99.90
51567;DHT22;37657;53.182;5.638;2022-12-29T07:48:05;10.00;99.90
51567;DHT22;37657;53.182;5.638;2022-12-29T07:50:33;10.10;99.90
51567;DHT22;37657;53.182;5.638;2022-12-29T07:52:59;10.00;99.90
51567;DHT22;37657;53.182;5.638;2022-12-29T07:55:25;10.10;99.90
51567;DHT22;37657;53.182;5.638;2022-12-29T07:57:53;10.10;99.90
51567;DHT22;37657;53.182;5.638;2022-12-29T08:00:19;10.10;99.90
51567;DHT22;37657;53.182;5.638;2022-12-29T08:02:44;10.10;99.90
51567;DHT22;37657;53.182;5.638;2022-12-29T08:05:10;10.00;99.90
51567;DHT22;37657;53.182;5.638;2022-12-29T08:07:36;10.10;99.90
51567;DHT22;37657;53.182;5.638;2022-12-29T08:10:02;10.10;99.90
51567;DHT22;37657;53.182;5.638;2022-12-29T08:12:28;10.10;99.90
51567;DHT22;37657;53.182;5.638;2022-12-29T08:14:53;10.10;99.90
51567;DHT22;37657;53.182;5.638;2022-12-29T08:17:19;10.10;99.90
51567;DHT22;37657;53.182;5.638;2022-12-29T08:19:44;10.10;99.90
51567;DHT22;37657;53.182;5.638;2022-12-29T08:22:10;10.10;99.90
51567;DHT22;37657;53.182;5.638;2022-12-29T08:24:35;10.10;99.90
51567;DHT22;37657;53.182;5.638;2022-12-29T08:27:01;10.00;99.90
51567;DHT22;37657;53.182;5.638;2022-12-29T08:29:27;10.10;99.90
51567;DHT22;37657;53.182;5.638;2022-12-29T08:31:53;10.00;99.90
51567;DHT22;37657;53.182;5.638;2022-12-29T08:34:18;10.00;99.90
51567;DHT22;37657;53.182;5.638;2022-12-29T08:36:44;10.00;99.90
51567;DHT22;37657;53.182;5.638;2022-12-29T08:39:09;10.10;99.90
51567;DHT22;37657;53.182;5.638;2022-12-29T08:41:35;10.10;99.90
51567;DHT22;37657;53.182;5.638;2022-12-29T08:44:00;10.10;99.90
51567;DHT22;37657;53.182;5.638;2022-12-29T08:46:26;10.10;99.90
51567;DHT22;37657;53.182;5.638;2022-12-29T08:48:53;10.10;99.90
51567;DHT22;37657;53.182;5.638;2022-12-29T08:51:18;10.10;99.90
51567;DHT22;37657;53.182;5.638;2022-12-29T08:53:44;10.20;99.90
51567;DHT22;37657;53.182;5.638;2022-12-29T08:56:10;10.20;99.90
51567;DHT22;37657;53.182;5.638;2022-12-29T08:58:37;10.10;99.90
51567;DHT22;37657;53.182;5.638;2022-12-29T09:01:03;10.10;99.90
51567;DHT22;37657;53.182;5.638;2022-12-29T09:03:28;10.00;99.90
51567;DHT22;37657;53.182;5.638;2022-12-29T09:05:55;10.00;99.90
51567;DHT22;37657;53.182;5.638;2022-12-29T09:08:21;10.10;99.90
51567;DHT22;37657;53.182;5.638;2022-12-29T09:10:47;10.10;99.90
51567;DHT22;37657;53.182;5.638;2022-12-29T09:13:14;10.10;99.90
51567;DHT22;37657;53.182;5.638;2022-12-29T09:15:40;10.00;99.90
51567;DHT22;37657;53.182;5.638;2022-12-29T09:18:07;10.00;99.90
51567;DHT22;37657;53.182;5.638;2022-12-29T09:20:33;10.00;99.90
51567;DHT22;37657;53.182;5.638;2022-12-29T09:22:59;10.00;99.90
51567;DHT22;37657;53.182;5.638;2022-12-29T09:25:25;10.00;99.90
51567;DHT22;37657;53.182;5.638;2022-12-29T09:27:51;10.00;99.90
51567;DHT22;37657;53.182;5.638;2022-12-29T09:30:19;10.00;99.90
51567;DHT22;37657;53.182;5.638;2022-12-29T09:32:45;10.00;99.90
51567;DHT22;37657;53.182;5.638;2022-12-29T09:35:11;10.00;99.90
51567;DHT22;37657;53.182;5.638;2022-12-29T09:37:37;9.90;99.90
51567;DHT22;37657;53.182;5.638;2022-12-29T09:40:04;9.90;99.90
51567;DHT22;37657;53.182;5.638;2022-12-29T09:42:49;9.80;99.90
51567;DHT22;37657;53.182;5.638;2022-12-29T09:45:28;9.80;99.90
51567;DHT22;37657;53.182;5.638;2022-12-29T09:47:54;9.80;99.90
51567;DHT22;37657;53.182;5.638;2022-12-29T09:50:24;9.80;99.90
51567;DHT22;37657;53.182;5.638;2022-12-29T09:53:09;9.80;99.90
51567;DHT22;37657;53.182;5.638;2022-12-29T09:55:42;9.80;99.90
51567;DHT22;37657;53.182;5.638;2022-12-29T09:58:21;9.80;99.90
51567;DHT22;37657;53.182;5.638;2022-12-29T10:00:56;9.80;99.90
51567;DHT22;37657;53.182;5.638;2022-12-29T10:03:24;9.80;99.90
51567;DHT22;37657;53.182;5.638;2022-12-29T10:06:15;9.80;99.90
51567;DHT22;37657;53.182;5.638;2022-12-29T10:08:52;9.80;99.90
51567;DHT22;37657;53.182;5.638;2022-12-29T10:20:02;10.00;99.90
51567;DHT22;37657;53.182;5.638;2022-12-29T10:23:01;10.00;99.90
51567;DHT22;37657;53.182;5.638;2022-12-29T10:25:30;10.10;99.90
51567;DHT22;37657;53.182;5.638;2022-12-29T10:28:01;10.10;99.90
51567;DHT22;37657;53.182;5.638;2022-12-29T10:30:28;10.10;99.90
51567;DHT22;37657;53.182;5.638;2022-12-29T10:32:58;10.10;99.90
51567;DHT22;37657;53.182;5.638;2022-12-29T10:35:26;10.10;99.90
51567;DHT22;37657;53.182;5.638;2022-12-29T10:37:59;10.10;99.90
51567;DHT22;37657;53.182;5.638;2022-12-29T10:40:43;10.10;99.90
51567;DHT22;37657;53.182;5.638;2022-12-29T10:43:51;10.10;99.90
51567;DHT22;37657;53.182;5.638;2022-12-29T10:46:32;10.20;99.90
51567;DHT22;37657;53.182;5.638;2022-12-29T10:48:58;10.10;99.90
51567;DHT22;37657;53.182;5.638;2022-12-29T10:51:26;10.10;99.90
51567;DHT22;37657;53.182;5.638;2022-12-29T10:54:08;10.20;99.90
51567;DHT22;37657;53.182;5.638;2022-12-29T10:56:59;10.20;99.90
51567;DHT22;37657;53.182;5.638;2022-12-29T10:59:34;10.30;99.90
51567;DHT22;37657;53.182;5.638;2022-12-29T11:07:21;10.40;99.90
51567;DHT22;37657;53.182;5.638;2022-12-29T11:09:47;10.40;99.90
51567;DHT22;37657;53.182;5.638;2022-12-29T11:12:22;10.30;99.90
51567;DHT22;37657;53.182;5.638;2022-12-29T11:17:45;10.30;99.90
51567;DHT22;37657;53.182;5.638;2022-12-29T11:22:52;10.20;99.90
51567;DHT22;37657;53.182;5.638;2022-12-29T11:25:18;10.00;99.90
51567;DHT22;37657;53.182;5.638;2022-12-29T11:28:28;10.00;99.90
51567;DHT22;37657;53.182;5.638;2022-12-29T11:30:59;10.00;99.90
51567;DHT22;37657;53.182;5.638;2022-12-29T11:33:28;9.90;99.90
51567;DHT22;37657;53.182;5.638;2022-12-29T11:35:58;9.90;99.90
51567;DHT22;37657;53.182;5.638;2022-12-29T11:38:39;9.90;99.90
51567;DHT22;37657;53.182;5.638;2022-12-29T11:41:09;9.90;99.90
51567;DHT22;37657;53.182;5.638;2022-12-29T11:43:41;10.00;99.90
51567;DHT22;37657;53.182;5.638;2022-12-29T11:46:18;10.00;99.90
51567;DHT22;37657;53.182;5.638;2022-12-29T11:48:46;10.00;99.90
51567;DHT22;37657;53.182;5.638;2022-12-29T11:51:20;10.10;99.90
51567;DHT22;37657;53.182;5.638;2022-12-29T11:53:49;10.00;99.90
51567;DHT22;37657;53.182;5.638;2022-12-29T11:56:17;10.10;99.90
51567;DHT22;37657;53.182;5.638;2022-12-29T11:58:45;10.00;99.90
51567;DHT22;37657;53.182;5.638;2022-12-29T12:01:43;10.00;99.90
51567;DHT22;37657;53.182;5.638;2022-12-29T12:04:13;10.20;99.90
51567;DHT22;37657;53.182;5.638;2022-12-29T12:06:48;10.10;99.90
51567;DHT22;37657;53.182;5.638;2022-12-29T12:09:22;10.20;99.90
51567;DHT22;37657;53.182;5.638;2022-12-29T12:11:52;10.10;99.90
51567;DHT22;37657;53.182;5.638;2022-12-29T12:17:20;10.20;99.90
51567;DHT22;37657;53.182;5.638;2022-12-29T12:19:54;10.10;99.90
51567;DHT22;37657;53.182;5.638;2022-12-29T12:22:36;10.10;99.90
51567;DHT22;37657;53.182;5.638;2022-12-29T12:25:13;10.30;99.90
51567;DHT22;37657;53.182;5.638;2022-12-29T12:27:51;10.20;99.90
51567;DHT22;37657;53.182;5.638;2022-12-29T12:30:23;10.10;99.90
51567;DHT22;37657;53.182;5.638;2022-12-29T12:32:56;10.20;99.90
51567;DHT22;37657;53.182;5.638;2022-12-29T12:41:47;10.20;99.90
51567;DHT22;37657;53.182;5.638;2022-12-29T12:47:33;10.20;99.90
51567;DHT22;37657;53.182;5.638;2022-12-29T12:50:19;10.20;99.90
51567;DHT22;37657;53.182;5.638;2022-12-29T12:55:54;10.20;99.90
51567;DHT22;37657;53.182;5.638;2022-12-29T12:58:43;10.20;99.90
51567;DHT22;37657;53.182;5.638;2022-12-29T13:07:47;10.30;99.90
51567;DHT22;37657;53.182;5.638;2022-12-29T13:10:36;10.30;99.90
51567;DHT22;37657;53.182;5.638;2022-12-29T13:27:42;10.20;99.90
51567;DHT22;37657;53.182;5.638;2022-12-29T13:30:20;10.10;99.90
51567;DHT22;37657;53.182;5.638;2022-12-29T13:33:17;10.10;99.90
51567;DHT22;37657;53.182;5.638;2022-12-29T13:38:36;10.20;99.90
51567;DHT22;37657;53.182;5.638;2022-12-29T13:41:27;10.20;99.90
51567;DHT22;37657;53.182;5.638;2022-12-29T13:43:55;10.10;99.90
51567;DHT22;37657;53.182;5.638;2022-12-29T13:46:27;10.10;99.90
51567;DHT22;37657;53.182;5.638;2022-12-29T13:48:59;10.20;99.90
51567;DHT22;37657;53.182;5.638;2022-12-29T13:51:28;10.20;99.90
51567;DHT22;37657;53.182;5.638;2022-12-29T13:54:18;10.20;99.90
51567;DHT22;37657;53.182;5.638;2022-12-29T13:57:10;10.10;99.90
51567;DHT22;37657;53.182;5.638;2022-12-29T13:59:42;10.20;99.90
51567;DHT22;37657;53.182;5.638;2022-12-29T14:05:03;10.10;99.90
51567;DHT22;37657;53.182;5.638;2022-12-29T14:07:36;10.10;99.90
51567;DHT22;37657;53.182;5.638;2022-12-29T14:10:02;10.00;99.90
51567;DHT22;37657;53.182;5.638;2022-12-29T14:12:42;10.00;99.90
51567;DHT22;37657;53.182;5.638;2022-12-29T14:17:39;9.90;99.90
51567;DHT22;37657;53.182;5.638;2022-12-29T14:20:17;9.90;99.90
51567;DHT22;37657;53.182;5.638;2022-12-29T14:23:17;9.90;99.90
51567;DHT22;37657;53.182;5.638;2022-12-29T14:28:33;9.90;99.90
51567;DHT22;37657;53.182;5.638;2022-12-29T14:31:04;9.80;99.90
51567;DHT22;37657;53.182;5.638;2022-12-29T14:33:32;9.80;99.90
51567;DHT22;37657;53.182;5.638;2022-12-29T14:36:18;9.90;99.90
51567;DHT22;37657;53.182;5.638;2022-12-29T14:38:45;10.00;99.90
51567;DHT22;37657;53.182;5.638;2022-12-29T14:41:38;9.90;99.90
51567;DHT22;37657;53.182;5.638;2022-12-29T14:46:48;9.80;99.90
51567;DHT22;37657;53.182;5.638;2022-12-29T14:49:21;9.80;99.90
51567;DHT22;37657;53.182;5.638;2022-12-29T14:51:50;9.80;99.90
51567;DHT22;37657;53.182;5.638;2022-12-29T14:57:04;9.80;99.90
51567;DHT22;37657;53.182;5.638;2022-12-29T14:59:32;9.70;99.90
51567;DHT22;37657;53.182;5.638;2022-12-29T15:02:00;9.80;99.90
51567;DHT22;37657;53.182;5.638;2022-12-29T15:04:32;9.80;99.90
51567;DHT22;37657;53.182;5.638;2022-12-29T15:07:00;9.80;99.90
51567;DHT22;37657;53.182;5.638;2022-12-29T15:12:33;9.80;99.90
51567;DHT22;37657;53.182;5.638;2022-12-29T15:15:00;9.80;99.90
51567;DHT22;37657;53.182;5.638;2022-12-29T15:17:30;9.80;99.90
51567;DHT22;37657;53.182;5.638;2022-12-29T15:19:59;9.80;99.90
51567;DHT22;37657;53.182;5.638;2022-12-29T15:22:26;9.70;99.90
51567;DHT22;37657;53.182;5.638;2022-12-29T15:24:53;9.70;99.90
51567;DHT22;37657;53.182;5.638;2022-12-29T15:27:23;9.70;99.90
51567;DHT22;37657;53.182;5.638;2022-12-29T15:29:56;9.70;99.90
51567;DHT22;37657;53.182;5.638;2022-12-29T15:32:24;9.70;99.90
51567;DHT22;37657;53.182;5.638;2022-12-29T15:34:53;9.70;99.90
51567;DHT22;37657;53.182;5.638;2022-12-29T15:37:28;9.70;99.90
51567;DHT22;37657;53.182;5.638;2022-12-29T15:39:57;9.70;99.90
51567;DHT22;37657;53.182;5.638;2022-12-29T15:45:11;9.80;99.90
51567;DHT22;37657;53.182;5.638;2022-12-29T15:47:38;9.80;99.90
51567;DHT22;37657;53.182;5.638;2022-12-29T15:52:43;9.60;99.90
51567;DHT22;37657;53.182;5.638;2022-12-29T15:55:30;9.50;99.90
51567;DHT22;37657;53.182;5.638;2022-12-29T15:58:01;9.50;99.90
51567;DHT22;37657;53.182;5.638;2022-12-29T16:00:35;9.50;99.90
51567;DHT22;37657;53.182;5.638;2022-12-29T16:03:04;9.50;99.90
51567;DHT22;37657;53.182;5.638;2022-12-29T16:05:34;9.40;99.90
51567;DHT22;37657;53.182;5.638;2022-12-29T16:08:01;9.30;99.90
51567;DHT22;37657;53.182;5.638;2022-12-29T16:10:39;9.30;99.90
51567;DHT22;37657;53.182;5.638;2022-12-29T16:13:30;9.20;99.90
51567;DHT22;37657;53.182;5.638;2022-12-29T16:16:01;9.30;99.90
51567;DHT22;37657;53.182;5.638;2022-12-29T16:18:30;9.20;99.90
51567;DHT22;37657;53.182;5.638;2022-12-29T16:20:58;9.30;99.90
51567;DHT22;37657;53.182;5.638;2022-12-29T16:23:28;9.30;99.90
51567;DHT22;37657;53.182;5.638;2022-12-29T16:25:56;9.30;99.90
51567;DHT22;37657;53.182;5.638;2022-12-29T16:28:38;9.30;99.90
51567;DHT22;37657;53.182;5.638;2022-12-29T16:31:18;9.30;99.90
51567;DHT22;37657;53.182;5.638;2022-12-29T16:36:28;9.30;99.90
51567;DHT22;37657;53.182;5.638;2022-12-29T16:41:54;9.20;99.90
51567;DHT22;37657;53.182;5.638;2022-12-29T16:44:25;9.20;99.90
51567;DHT22;37657;53.182;5.638;2022-12-29T16:47:02;9.10;99.90
51567;DHT22;37657;53.182;5.638;2022-12-29T16:49:30;9.20;99.90
51567;DHT22;37657;53.182;5.638;2022-12-29T16:51:56;9.10;99.90
51567;DHT22;37657;53.182;5.638;2022-12-29T16:54:32;9.10;99.90
51567;DHT22;37657;53.182;5.638;2022-12-29T16:56:58;9.10;99.90
51567;DHT22;37657;53.182;5.638;2022-12-29T16:59:40;9.20;99.90
51567;DHT22;37657;53.182;5.638;2022-12-29T17:02:15;9.20;99.90
51567;DHT22;37657;53.182;5.638;2022-12-29T17:04:41;9.20;99.90
51567;DHT22;37657;53.182;5.638;2022-12-29T17:07:22;9.20;99.90
51567;DHT22;37657;53.182;5.638;2022-12-29T17:09:47;9.20;99.90
51567;DHT22;37657;53.182;5.638;2022-12-29T17:12:19;9.20;99.90
51567;DHT22;37657;53.182;5.638;2022-12-29T17:14:49;9.10;99.90
51567;DHT22;37657;53.182;5.638;2022-12-29T17:17:33;9.10;99.90
51567;DHT22;37657;53.182;5.638;2022-12-29T17:20:15;9.10;99.90
51567;DHT22;37657;53.182;5.638;2022-12-29T17:22:40;9.10;99.90
51567;DHT22;37657;53.182;5.638;2022-12-29T17:25:08;9.20;99.90
51567;DHT22;37657;53.182;5.638;2022-12-29T17:27:40;9.20;99.90
51567;DHT22;37657;53.182;5.638;2022-12-29T17:30:15;9.10;99.90
51567;DHT22;37657;53.182;5.638;2022-12-29T17:32:43;9.10;99.90
51567;DHT22;37657;53.182;5.638;2022-12-29T17:35:15;9.20;99.90
51567;DHT22;37657;53.182;5.638;2022-12-29T17:37:42;9.10;99.90
51567;DHT22;37657;53.182;5.638;2022-12-29T17:40:19;9.10;99.90
51567;DHT22;37657;53.182;5.638;2022-12-29T17:42:48;9.10;99.90
51567;DHT22;37657;53.182;5.638;2022-12-29T17:45:19;9.20;99.90